• Join FlightAware (Why Join?)
  • Login
  • US Flag 
06:36AM EDT


 

Airport Tracker/Info


-or-


 

Live Flight TrackerFlight Track Log ✈ SCX8701 ✈ 17-Feb-2014 ✈ KPGD - KIAG

Flight Track Log - Related Links

Times and Time Zones

All times are in EST time to prevent confusion due to time zone crossing. See the SCX8701 flight status page for this flight to view local times or setup timezone preferences in your user account.

Time Position Orientation Groundspeed Altitude Reporting Facility
EST Latitude Longitude Course Direction KTS MPH feet Rate Location/Type
06:54PM 27.1363 -81.9078 20° North 294 338 9,000  Level FlightAware ADS-B (KMCO)
06:54PM 27.1888 -81.8869 20° North 319 367 10,700 2,520 Climbing FlightAware ADS-B (KMCO)
06:55PM 27.2333 -81.8692 19° North 337 388 11,900 2,940 Climbing FlightAware ADS-B (KMCO)
06:55PM 27.2761 -81.8514 20° North 335 386 13,700 3,060 Climbing FlightAware ADS-B (KMCO)
06:56PM 27.3238 -81.8325 19° North 342 394 15,100 2,400 Climbing FlightAware ADS-B (KMCO)
06:57PM 27.3854 -81.8078 19° North 363 418 16,600 2,100 Climbing FlightAware ADS-B (KMCO)
06:57PM 27.4343 -81.7880 20° North 380 437 17,600 2,040 Climbing FlightAware ADS-B (KMCO)
06:58PM 27.5020 -81.7606 20° North 394 453 19,000 2,220 Climbing FlightAware ADS-B (KMCO)
06:59PM 27.5727 -81.7318 20° North 401 461 20,600 2,340 Climbing FlightAware ADS-B (KMCO)
06:59PM 27.6361 -81.7061 20° North 407 468 22,100 2,220 Climbing FlightAware ADS-B (KMCO)
07:00PM 27.6946 -81.6829 19° North 414 476 23,200 2,100 Climbing FlightAware ADS-B (KMCO)
07:00PM 27.7499 -81.6600 20° North 418 481 24,200 1,860 Climbing FlightAware ADS-B (KMCO)
07:01PM 27.8054 -81.6376 20° North 423 487 25,100 1,800 Climbing FlightAware ADS-B (KMCO)
07:01PM 27.8790 -81.6073 20° North 427 491 26,300 1,620 Climbing FlightAware ADS-B (KMCO)
07:02PM 27.9353 -81.5845 20° North 429 494 27,000 1,560 Climbing FlightAware ADS-B (KMCO)
07:02PM 27.9928 -81.5617 19° North 429 494 27,900 1,620 Climbing FlightAware ADS-B (KMCO)
07:03PM 28.0505 -81.5379 20° North 434 499 28,700 1,320 Climbing FlightAware ADS-B (KMCO)
07:03PM 28.1085 -81.5145 20° North 442 509 29,300 960 Climbing FlightAware ADS-B (KMCO)
07:04PM 28.1661 -81.4905 20° North 451 519 29,700 780 Climbing FlightAware ADS-B (KMCO)
07:04PM 28.2254 -81.4660 20° North 461 531 30,100 900 Climbing FlightAware ADS-B (KMCO)
07:05PM 28.3069 -81.4326 20° North 470 541 30,800 1,080 Climbing FlightAware ADS-B (KMCO)
07:06PM 28.3889 -81.3996 20° North 477 549 31,600 1,200 Climbing FlightAware ADS-B (KMCO)
07:06PM 28.4516 -81.3729 20° North 481 554 32,200 1,200 Climbing FlightAware ADS-B (KMCO)
07:07PM 28.5143 -81.3490 19° North 479 551 32,800 1,140 Climbing FlightAware ADS-B (KMCO)
07:07PM 28.5600 -81.3403 North 472 543 33,200 1,080 Climbing FlightAware ADS-B (KMCO)
07:07PM 28.5753 -81.3396 North 468 539 33,400 1,140 Climbing FlightAware ADS-B
07:08PM 28.6478 -81.3451 356° North 465 535 34,000 1,260 Climbing FlightAware ADS-B
07:08PM 28.7117 -81.3512 355° North 464 534 34,700 840 Climbing FlightAware ADS-B (KSFB)
07:09PM 28.7955 -81.3592 355° North 467 537 35,000 240 Climbing FlightAware ADS-B (KMCO)
07:09PM 28.8597 -81.3654 355° North 467 537 35,000  Level FlightAware ADS-B (KMCO)
07:10PM 28.9258 -81.3717 355° North 466 536 35,000  Level FlightAware ADS-B
07:10PM 28.9903 -81.3780 355° North 466 536 35,000  Level FlightAware ADS-B (KMCO)
07:11PM 29.0741 -81.3861 355° North 466 536 35,000  Level FlightAware ADS-B (KMCO)
07:12PM 29.1405 -81.3925 355° North 467 537 35,000  Level FlightAware ADS-B (KMCO)
07:12PM 29.2065 -81.3986 355° North 467 537 35,000  Level FlightAware ADS-B (KMCO)
07:13PM 29.2890 -81.4064 355° North 465 535 35,000  Level FlightAware ADS-B (KMCO)
07:13PM 29.3525 -81.4128 355° North 464 534 35,000  Level FlightAware ADS-B (KMCO)
07:14PM 29.4209 -81.4194 355° North 464 534 35,000  Level FlightAware ADS-B (KMCO)
07:14PM 29.4779 -81.4251 355° North 464 534 35,000  Level FlightAware ADS-B (KMCO)
07:15PM 29.5654 -81.4337 355° North 464 534 35,000  Level FlightAware ADS-B (KMCO)
07:15PM 29.6339 -81.4405 355° North 465 535 35,000  Level FlightAware ADS-B (KMCO)
07:16PM 29.7009 -81.4471 355° North 466 536 35,000  Level FlightAware ADS-B (KMCO)
07:17PM 29.7815 -81.4550 355° North 469 540 35,000  Level FlightAware ADS-B (KMCO)
07:17PM 29.8733 -81.4639 355° North 469 540 35,000  Level FlightAware ADS-B (KMCO)
07:18PM 29.9414 -81.4711 355° North 463 533 35,000  Level Jacksonville Center
07:19PM 30.0686 -81.4836 355° North 463 533 35,000  Level Jacksonville Center
07:20PM 30.2006 -81.4961 355° North 463 533 35,000  Level Jacksonville Center
07:21PM 30.3278 -81.5089 355° North 463 533 35,000  Level Jacksonville Center
07:22PM 30.4633 -81.4947 North 463 533 35,000  Level Jacksonville Center
07:23PM 30.5947 -81.4808 North 469 540 35,000  Level Jacksonville Center
07:24PM 30.7283 -81.4644 North 474 545 35,000  Level Jacksonville Center
07:25PM 30.8597 -81.4453 North 474 545 35,000  Level Jacksonville Center
07:26PM 30.9889 -81.4289 North 469 540 35,000  Level Jacksonville Center
07:27PM 31.1181 -81.4147 North 469 540 35,000  Level Jacksonville Center
07:28PM 31.2453 -81.3981 North 464 534 35,000  Level Jacksonville Center
07:29PM 31.3850 -81.3789 North 459 528 35,000  Level Jacksonville Center
07:30PM 31.4997 -81.3672 North 453 521 35,000  Level Jacksonville Center
07:31PM 31.6372 -81.3481 North 458 527 35,000  Level Jacksonville Center
07:32PM 31.7622 -81.3311 North 463 533 35,000 120 Level Jacksonville Center
07:33PM 31.8769 -81.3169 North 457 526 35,300 720 Climbing Jacksonville Center
07:34PM 32.0042 -81.3000 North 457 526 36,500 840 Climbing Jacksonville Center
07:35PM 32.1314 -81.2833 North 457 526 37,000 240 Climbing Jacksonville Center
07:36PM 32.2542 -81.2664 North 457 526 37,000  Level Jacksonville Center
07:37PM 32.3814 -81.2517 North 457 526 37,000  Level Jacksonville Center
07:38PM 32.5189 -81.2344 North 457 526 37,000  Level Jacksonville Center
07:39PM 32.6314 -81.2200 North 452 520 37,000  Level Jacksonville Center
07:40PM 32.7711 -81.2003 North 452 520 37,000  Level Jacksonville Center
07:41PM 32.8983 -81.1856 North 452 520 37,000  Level Jacksonville Center
07:42PM 33.0233 -81.1683 North 457 526 37,000 -300 Level Jacksonville Center
07:48PM 33.7982 -81.0620 North 453 521 35,000 -300 Descending FlightAware ADS-B (KCDN)
07:49PM 33.8890 -81.0499 North 454 522 35,000  Level FlightAware ADS-B (KCDN)
07:49PM 33.9540 -81.0435 North 453 521 35,000  Level FlightAware ADS-B (KCDN)
07:50PM 34.0497 -81.0345 North 456 525 35,000  Level FlightAware ADS-B (KCDN)
07:51PM 34.1408 -81.0254 North 457 526 35,000 60 Level FlightAware ADS-B (KCDN)
07:51PM 34.2307 -81.0161 North 462 532 35,100 600 Climbing FlightAware ADS-B (KCDN)
07:52PM 34.3368 -81.0051 North 460 529 36,000 1,080 Climbing FlightAware ADS-B (KCDN)
07:53PM 34.4310 -80.9955 North 458 527 36,800 780 Climbing FlightAware ADS-B (KCDN)
07:54PM 34.4925 -80.9892 North 459 528 37,000 120 Climbing FlightAware ADS-B (KCDN)
07:54PM 34.6097 -80.9775 North 453 521 37,000  Level Atlanta Center
07:55PM 34.7367 -80.9678 North 453 521 37,000  Level Atlanta Center
07:56PM 34.8636 -80.9506 North 458 527 37,000  Level Atlanta Center
07:57PM 34.9906 -80.9381 North 458 527 37,000  Level Atlanta Center
07:58PM 35.1156 -80.9283 North 458 527 37,000  Level Atlanta Center
07:59PM 35.2422 -80.9083 North 453 521 37,000  Level Atlanta Center
08:00PM 35.3547 -80.9014 North 459 528 37,000  Level Atlanta Center
08:01PM 35.4794 -80.8867 North 459 528 37,000  Level Atlanta Center
08:02PM 35.6086 -80.8714 North 459 528 37,000  Level Atlanta Center
08:03PM 35.7375 -80.8586 North 459 528 37,000  Level Atlanta Center
08:04PM 35.8664 -80.8433 North 459 528 37,000  Level Atlanta Center
08:05PM 35.9956 -80.8306 North 459 528 37,000  Level Atlanta Center
08:06PM 36.1203 -80.8181 North 454 522 37,000  Level Atlanta Center
08:07PM 36.2472 -80.8053 North 454 522 37,000  Level Atlanta Center
08:08PM 36.3739 -80.7897 North 454 522 37,000  Level Atlanta Center
08:09PM 36.4989 -80.7769 North 454 522 37,000 300 Level Atlanta Center
08:12PM 36.7606 -80.7514 North 463 533 38,100 540 Climbing Washington Center
08:13PM 36.8864 -80.7364 North 463 533 38,800 420 Climbing Washington Center
08:14PM 37.0161 -80.7242 North 463 533 39,000 60 Climbing Washington Center
08:15PM 37.1467 -80.6992 North 463 533 39,000  Level Washington Center
08:16PM 37.2842 -80.6508 16° North 468 539 39,000  Level Washington Center
08:17PM 37.4133 -80.6072 15° North 473 544 39,000  Level Washington Center
08:18PM 37.5425 -80.5633 15° North 479 551 39,000  Level Washington Center
08:19PM 37.6714 -80.5219 14° North 479 551 39,000  Level Washington Center
08:20PM 37.7983 -80.4775 15° North 479 551 39,000  Level Washington Center
08:21PM 37.9294 -80.4333 15° North 479 551 39,000  Level Washington Center
08:22PM 38.0458 -80.3936 15° North 479 551 39,000  Level Washington Center
08:23PM 38.1769 -80.3492 15° North 479 551 39,000  Level Washington Center
08:24PM 38.3100 -80.3047 15° North 479 551 39,000  Level Washington Center
08:25PM 38.4411 -80.2600 15° North 479 551 39,000  Level Washington Center
08:26PM 38.5722 -80.2125 16° North 479 551 39,000  Level Washington Center
08:27PM 38.7789 -80.1344 16° North 492 566 39,000  Level Cleveland Center
08:28PM 38.9097 -80.0897 15° North 491 565 39,000  Level Cleveland Center
08:29PM 39.0383 -80.0914 359° North 461 531 39,000  Level Cleveland Center
08:30PM 39.1650 -80.0997 357° North 457 526 39,000  Level Cleveland Center
08:31PM 39.3181 -80.1067 358° North 460 529 39,000 -60 Level Cleveland Center
08:37PM 40.0649 -79.9186 358° North 481 554 38,900 -120 Descending FlightAware ADS-B (WMSA / SZB)
08:37PM 40.1388 -79.8998 11° North 484 557 38,400 -900 Descending FlightAware ADS-B (WMSA / SZB)
08:38PM 40.2068 -79.8822 11° North 486 559 38,000 -900 Descending FlightAware ADS-B (WMSA / SZB)
08:38PM 40.2871 -79.8616 11° North 488 562 37,400 -1,260 Descending FlightAware ADS-B (WMSA / SZB)
08:39PM 40.3704 -79.8401 11° North 489 563 36,500 -960 Descending FlightAware ADS-B (CYKZ)
08:40PM 40.3242 -79.8520 191° South 479 551 36,200 -1,140 Descending FlightAware ADS-B (WMSA / SZB)
08:41PM 40.5772 -79.7870 11° North 480 552 34,300 -1,620 Descending FlightAware ADS-B (CYKZ)
08:42PM 40.6487 -79.7684 11° North 484 557 33,400 -1,800 Descending FlightAware ADS-B (CYKZ)
08:46PM 41.2876 -79.5993 11° North 507 583 25,000 -1,620 Descending FlightAware ADS-B (CYKZ)
08:47PM 41.4861 -79.5468 11° North 501 577 24,000 -480 Descending FlightAware ADS-B (CYKZ)
08:49PM 41.6672 -79.4983 11° North 497 572 23,900 -660 Descending FlightAware ADS-B (CYKZ)
08:51PM 41.9531 -79.4215 11° North 470 541 21,800 -1,080 Descending FlightAware ADS-B (CYYZ)
08:51PM 42.0195 -79.4032 12° North 456 525 21,100 -1,200 Descending FlightAware ADS-B (CYYZ)
08:52PM 42.0763 -79.3879 11° North 431 496 20,600 -1,140 Descending FlightAware ADS-B (CYYZ)
08:52PM 42.1368 -79.3714 11° North 411 473 20,000 -1,140 Descending FlightAware ADS-B (CYYZ)
08:53PM 42.1876 -79.3577 11° North 393 452 19,500 -1,140 Descending FlightAware ADS-B (CYYZ)
08:53PM 42.2439 -79.3425 11° North 384 442 18,900 -1,140 Descending FlightAware ADS-B (CYYZ)
08:54PM 42.2947 -79.3286 11° North 374 430 18,400 -1,020 Descending FlightAware ADS-B (CYYZ)
08:54PM 42.3440 -79.3145 12° North 367 422 17,900 -1,020 Descending FlightAware ADS-B (CYYZ)
08:55PM 42.3938 -79.3006 12° North 365 420 17,400 -1,020 Descending FlightAware ADS-B (CYYZ)
08:55PM 42.4440 -79.2870 11° North 369 425 16,900 -1,200 Descending FlightAware ADS-B (CYYZ)
08:56PM 42.4524 -79.2848 11° North 374 430 16,600 -1,020 Descending FlightAware ADS-B (CYKZ)
08:56PM 42.4956 -79.2707 14° North 375 432 16,400 -900 Descending FlightAware ADS-B (CYYZ)
08:56PM 42.5431 -79.2469 20° North 375 432 15,900 -1,140 Descending FlightAware ADS-B (CYYZ)
08:56PM 42.5448 -79.2461 20° North 374 430 15,800 -1,020 Descending FlightAware ADS-B (CYKZ)
08:57PM 42.5918 -79.2215 21° North 369 425 15,400 -900 Descending FlightAware ADS-B (CYYZ)
08:57PM 42.6015 -79.2164 21° North 369 425 15,300 -1,020 Descending FlightAware ADS-B (CYKZ)
08:57PM 42.6399 -79.1953 22° Northeast 368 423 14,900 -1,080 Descending FlightAware ADS-B (CYYZ)
08:58PM 42.6697 -79.1795 21° North 363 418 14,500 -1,020 Descending FlightAware ADS-B (CYKZ)
08:58PM 42.6848 -79.1720 20° North 361 415 14,400 -960 Descending FlightAware ADS-B (CYYZ)
08:58PM 42.7317 -79.1426 25° Northeast 358 412 13,900 -1,080 Descending FlightAware ADS-B (CYYZ)
08:59PM 42.7483 -79.1378 12° North 353 406 13,700 -960 Descending FlightAware ADS-B (CYYZ)
08:59PM 42.7634 -79.1380 359° North 349 402 13,600 -1,080 Descending FlightAware ADS-B (CYYZ)
08:59PM 42.8089 -79.1451 354° North 341 392 13,000 -1,140 Descending FlightAware ADS-B (CYYZ)
09:00PM 42.8584 -79.1534 353° North 327 376 12,500 -1,740 Descending FlightAware ADS-B (CYYZ)
09:00PM 42.9027 -79.1636 350° North 339 390 11,300 -2,340 Descending FlightAware ADS-B (CYYZ)
09:01PM 42.9495 -79.1757 349° North 344 396 10,200 -1,560 Descending FlightAware ADS-B (CYYZ)
09:01PM 42.9818 -79.1842 349° North 330 380 10,000 -480 Descending FlightAware ADS-B (CYYZ)
09:01PM 43.0108 -79.1912 350° North 315 362 9,900 -720 Descending FlightAware ADS-B (CYYZ)
09:02PM 43.0322 -79.1966 350° North 312 359 9,600 -1,200 Descending FlightAware ADS-B (CYYZ)
09:02PM 43.0534 -79.2019 350° North 308 354 9,300 -1,440 Descending FlightAware ADS-B (CYYZ)
09:02PM 43.0738 -79.2068 350° North 305 351 8,900 -1,680 Descending FlightAware ADS-B (CYYZ)
09:02PM 43.0877 -79.2118 345° North 306 352 8,600 -2,040 Descending FlightAware ADS-B (CYYZ)
09:02PM 43.0939 -79.2150 339° North 306 352 8,400 -1,380 Descending FlightAware ADS-B (CYYZ)
09:03PM 43.0999 -79.2199 329° Northwest 303 349 8,400 -1,200 Level FlightAware ADS-B (CYYZ)
09:03PM 43.1172 -79.2379 323° Northwest 302 348 8,000 -1,440 Descending FlightAware ADS-B (CYYZ)
09:03PM 43.1336 -79.2549 323° Northwest 300 345 7,700 -1,500 Descending FlightAware ADS-B (CYYZ)
09:03PM 43.1499 -79.2709 324° Northwest 301 346 7,300 -1,440 Descending FlightAware ADS-B (CYYZ)
09:03PM 43.1554 -79.2761 326° Northwest 301 346 7,200 -1,680 Descending FlightAware ADS-B (CYYZ)
09:03PM 43.1626 -79.2811 333° Northwest 301 346 7,000 -2,040 Descending FlightAware ADS-B (CYYZ)
09:04PM 43.1688 -79.2833 345° North 299 344 6,900 -1,800 Descending FlightAware ADS-B (CYYZ)
09:04PM 43.1760 -79.2852 349° North 298 343 6,700 -2,400 Descending FlightAware ADS-B (CYYZ)
09:04PM 43.1814 -79.2854 359° North 296 341 6,500 -2,400 Descending FlightAware ADS-B (CYHM)
09:04PM 43.1894 -79.2841 North 292 336 6,300 -2,280 Descending FlightAware ADS-B (CYYZ)
09:04PM 43.1921 -79.2832 14° North 289 333 6,200 -2,040 Descending FlightAware ADS-B (CYKZ)
09:04PM 43.2009 -79.2788 20° North 285 328 6,000 -2,040 Descending FlightAware ADS-B (CYYZ)
09:04PM 43.2075 -79.2734 31° Northeast 279 321 5,800 -2,220 Descending FlightAware ADS-B (CYYZ)
09:04PM 43.2123 -79.2679 40° Northeast 273 314 5,600 -2,400 Descending FlightAware ADS-B (CYYZ)
09:04PM 43.2157 -79.2628 47° Northeast 268 308 5,400 -2,700 Descending FlightAware ADS-B (CYYZ)
09:04PM 43.2195 -79.2558 54° Northeast 263 303 5,200 -2,220 Descending FlightAware ADS-B (CYYZ)
09:04PM 43.2219 -79.2485 66° East 253 291 5,000 -2,400 Descending FlightAware ADS-B (CYYZ)
09:04PM 43.2231 -79.2393 79° East 247 284 4,800 -2,040 Descending FlightAware ADS-B (CYYZ)
09:05PM 43.2231 -79.2333 90° East 236 272 4,700 -1,200 Descending FlightAware ADS-B (CYYZ)
09:05PM 43.2221 -79.2261 102° East 223 257 4,600 -1,140 Descending FlightAware ADS-B (CYYZ)
09:05PM 43.2207 -79.2223 117° Southeast 207 238 4,500 -1,200 Descending FlightAware ADS-B (CYYZ)
09:05PM 43.2172 -79.2147 122° Southeast 200 230 4,400 -1,380 Descending FlightAware ADS-B (CYYZ)
09:05PM 43.2146 -79.2111 135° Southeast 192 221 4,300 -600 Descending FlightAware ADS-B (CYYZ)
09:05PM 43.2097 -79.2064 145° Southeast 185 213 4,300 -840 Level FlightAware ADS-B (CYYZ)
09:05PM 43.2024 -79.2027 160° South 178 205 4,100 -960 Descending FlightAware ADS-B (CYYZ)
09:05PM 43.1902 -79.1991 168° South 170 196 3,900 -840 Descending FlightAware ADS-B (CYYZ)
09:06PM 43.1797 -79.1959 168° South 158 182 3,700 -540 Descending FlightAware ADS-B (CYYZ)
09:06PM 43.1727 -79.1928 162° South 149 171 3,700  Level FlightAware ADS-B (CYYZ)
09:06PM 43.1707 -79.1914 153° Southeast 147 169 3,700  Level FlightAware ADS-B (CYYZ)
09:06PM 43.1671 -79.1873 140° Southeast 149 171 3,700 -720 Level FlightAware ADS-B (CYYZ)
09:06PM 43.1650 -79.1837 129° Southeast 151 174 3,600 -1,200 Descending FlightAware ADS-B (CYYZ)
09:06PM 43.1631 -79.1796 121° Southeast 155 178 3,500 -600 Descending FlightAware ADS-B (CYYZ)
09:06PM 43.1618 -79.1760 116° Southeast 158 182 3,500 -660 Level FlightAware ADS-B (CYYZ)
09:06PM 43.1583 -79.1621 109° East 154 177 3,300 -780 Descending FlightAware ADS-B (CYYZ)
09:07PM 43.1551 -79.1494 109° East 150 173 3,100 -840 Descending FlightAware ADS-B (CYYZ)
09:07PM 43.1514 -79.1352 110° East 148 170 2,900 -540 Descending FlightAware ADS-B (CYYZ)
09:08PM 43.1500 -79.1000 110° East 145 167 2,700 -540 Descending Buffalo TRACON
09:08PM 43.1328 -79.0681 126° Southeast 144 166 2,200 -720 Descending Cleveland Center
09:09PM 43.1211 -79.0233 110° East 133 153 1,500 -540 Descending Cleveland Center
09:10PM 43.1094 -78.9858 113° Southeast 124 143 1,200 -300 Descending Cleveland Center